sensor_id;sensor_type;location;lat;lon;timestamp;P1;durP1;ratioP1;P2;durP2;ratioP2
58302;SDS011;44109;52.398;7.024;2023-12-20T00:00:48;5.95;;;3.58;;
58302;SDS011;44109;52.398;7.024;2023-12-20T00:03:16;6.60;;;3.35;;
58302;SDS011;44109;52.398;7.024;2023-12-20T00:05:45;8.25;;;3.80;;
58302;SDS011;44109;52.398;7.024;2023-12-20T00:08:14;11.93;;;4.35;;
58302;SDS011;44109;52.398;7.024;2023-12-20T00:10:42;7.35;;;3.20;;
58302;SDS011;44109;52.398;7.024;2023-12-20T00:13:12;8.10;;;4.03;;
58302;SDS011;44109;52.398;7.024;2023-12-20T00:15:40;11.65;;;4.70;;
58302;SDS011;44109;52.398;7.024;2023-12-20T00:18:07;6.57;;;2.83;;
58302;SDS011;44109;52.398;7.024;2023-12-20T00:20:35;13.10;;;4.68;;
58302;SDS011;44109;52.398;7.024;2023-12-20T00:23:04;9.88;;;3.70;;
58302;SDS011;44109;52.398;7.024;2023-12-20T00:25:31;10.40;;;3.88;;
58302;SDS011;44109;52.398;7.024;2023-12-20T00:27:59;7.05;;;3.65;;
58302;SDS011;44109;52.398;7.024;2023-12-20T00:30:26;7.95;;;3.20;;
58302;SDS011;44109;52.398;7.024;2023-12-20T00:32:55;11.90;;;4.30;;
58302;SDS011;44109;52.398;7.024;2023-12-20T00:35:22;7.10;;;3.47;;
58302;SDS011;44109;52.398;7.024;2023-12-20T00:37:50;9.43;;;3.80;;
58302;SDS011;44109;52.398;7.024;2023-12-20T00:40:19;5.95;;;3.25;;
58302;SDS011;44109;52.398;7.024;2023-12-20T00:42:48;7.10;;;3.05;;
58302;SDS011;44109;52.398;7.024;2023-12-20T00:45:15;6.97;;;2.75;;
58302;SDS011;44109;52.398;7.024;2023-12-20T00:47:43;10.85;;;2.97;;
58302;SDS011;44109;52.398;7.024;2023-12-20T00:50:10;15.00;;;3.53;;
58302;SDS011;44109;52.398;7.024;2023-12-20T00:52:38;11.80;;;3.70;;
58302;SDS011;44109;52.398;7.024;2023-12-20T00:55:06;5.38;;;3.25;;
58302;SDS011;44109;52.398;7.024;2023-12-20T00:57:35;8.77;;;3.20;;
58302;SDS011;44109;52.398;7.024;2023-12-20T01:00:03;6.43;;;3.20;;
58302;SDS011;44109;52.398;7.024;2023-12-20T01:02:41;12.93;;;3.42;;
58302;SDS011;44109;52.398;7.024;2023-12-20T01:05:08;8.25;;;3.80;;
58302;SDS011;44109;52.398;7.024;2023-12-20T01:07:36;8.25;;;3.17;;
58302;SDS011;44109;52.398;7.024;2023-12-20T01:10:04;9.38;;;3.33;;
58302;SDS011;44109;52.398;7.024;2023-12-20T01:12:32;7.47;;;3.08;;
58302;SDS011;44109;52.398;7.024;2023-12-20T01:15:04;7.63;;;2.60;;
58302;SDS011;44109;52.398;7.024;2023-12-20T01:17:32;7.68;;;3.13;;
58302;SDS011;44109;52.398;7.024;2023-12-20T01:20:05;6.45;;;2.47;;
58302;SDS011;44109;52.398;7.024;2023-12-20T01:22:37;10.88;;;3.70;;
58302;SDS011;44109;52.398;7.024;2023-12-20T01:25:04;5.28;;;2.00;;
58302;SDS011;44109;52.398;7.024;2023-12-20T01:27:32;7.85;;;2.90;;
58302;SDS011;44109;52.398;7.024;2023-12-20T01:30:02;12.20;;;4.88;;
58302;SDS011;44109;52.398;7.024;2023-12-20T01:32:30;10.98;;;3.28;;
58302;SDS011;44109;52.398;7.024;2023-12-20T01:34:57;5.88;;;2.53;;
58302;SDS011;44109;52.398;7.024;2023-12-20T01:37:28;8.95;;;3.53;;
58302;SDS011;44109;52.398;7.024;2023-12-20T01:39:56;9.13;;;3.17;;
58302;SDS011;44109;52.398;7.024;2023-12-20T01:42:24;6.38;;;2.80;;
58302;SDS011;44109;52.398;7.024;2023-12-20T01:44:52;8.07;;;2.58;;
58302;SDS011;44109;52.398;7.024;2023-12-20T01:47:20;12.45;;;4.22;;
58302;SDS011;44109;52.398;7.024;2023-12-20T01:49:48;8.60;;;3.20;;
58302;SDS011;44109;52.398;7.024;2023-12-20T01:52:23;11.15;;;3.10;;
58302;SDS011;44109;52.398;7.024;2023-12-20T01:54:53;13.70;;;3.40;;
58302;SDS011;44109;52.398;7.024;2023-12-20T01:57:28;8.95;;;3.67;;
58302;SDS011;44109;52.398;7.024;2023-12-20T01:59:56;11.27;;;4.28;;
58302;SDS011;44109;52.398;7.024;2023-12-20T02:02:25;9.82;;;4.13;;
58302;SDS011;44109;52.398;7.024;2023-12-20T02:04:56;16.05;;;5.15;;
58302;SDS011;44109;52.398;7.024;2023-12-20T02:07:24;14.80;;;4.80;;
58302;SDS011;44109;52.398;7.024;2023-12-20T02:09:51;8.60;;;3.88;;
58302;SDS011;44109;52.398;7.024;2023-12-20T02:12:19;17.33;;;6.05;;
58302;SDS011;44109;52.398;7.024;2023-12-20T02:14:47;15.63;;;5.97;;
58302;SDS011;44109;52.398;7.024;2023-12-20T02:17:15;15.88;;;4.97;;
58302;SDS011;44109;52.398;7.024;2023-12-20T02:19:45;10.82;;;4.00;;
58302;SDS011;44109;52.398;7.024;2023-12-20T02:22:14;10.82;;;4.53;;
58302;SDS011;44109;52.398;7.024;2023-12-20T02:24:43;14.25;;;4.43;;
58302;SDS011;44109;52.398;7.024;2023-12-20T02:27:11;15.15;;;4.70;;
58302;SDS011;44109;52.398;7.024;2023-12-20T02:29:42;18.73;;;6.05;;
58302;SDS011;44109;52.398;7.024;2023-12-20T02:32:10;15.02;;;5.18;;
58302;SDS011;44109;52.398;7.024;2023-12-20T02:34:37;11.27;;;4.55;;
58302;SDS011;44109;52.398;7.024;2023-12-20T02:37:05;15.02;;;6.00;;
58302;SDS011;44109;52.398;7.024;2023-12-20T02:39:34;12.13;;;5.60;;
58302;SDS011;44109;52.398;7.024;2023-12-20T02:42:02;14.18;;;4.82;;
58302;SDS011;44109;52.398;7.024;2023-12-20T02:44:33;17.15;;;5.30;;
58302;SDS011;44109;52.398;7.024;2023-12-20T02:47:02;15.15;;;5.20;;
58302;SDS011;44109;52.398;7.024;2023-12-20T02:49:29;14.40;;;5.97;;
58302;SDS011;44109;52.398;7.024;2023-12-20T02:51:57;13.95;;;5.07;;
58302;SDS011;44109;52.398;7.024;2023-12-20T02:54:25;20.08;;;5.85;;
58302;SDS011;44109;52.398;7.024;2023-12-20T02:56:54;17.58;;;4.40;;
58302;SDS011;44109;52.398;7.024;2023-12-20T02:59:21;13.15;;;4.72;;
58302;SDS011;44109;52.398;7.024;2023-12-20T03:01:49;14.43;;;3.65;;
58302;SDS011;44109;52.398;7.024;2023-12-20T03:04:16;15.05;;;4.47;;
58302;SDS011;44109;52.398;7.024;2023-12-20T03:06:47;11.30;;;4.20;;
58302;SDS011;44109;52.398;7.024;2023-12-20T03:09:15;14.35;;;3.97;;
58302;SDS011;44109;52.398;7.024;2023-12-20T03:11:51;18.02;;;4.53;;
58302;SDS011;44109;52.398;7.024;2023-12-20T03:14:20;16.05;;;4.93;;
58302;SDS011;44109;52.398;7.024;2023-12-20T03:16:49;14.80;;;4.30;;
58302;SDS011;44109;52.398;7.024;2023-12-20T03:19:17;18.02;;;5.85;;
58302;SDS011;44109;52.398;7.024;2023-12-20T03:21:45;17.75;;;4.57;;
58302;SDS011;44109;52.398;7.024;2023-12-20T03:24:13;21.95;;;5.25;;
58302;SDS011;44109;52.398;7.024;2023-12-20T03:26:40;11.45;;;4.65;;
58302;SDS011;44109;52.398;7.024;2023-12-20T03:29:09;17.98;;;4.93;;
58302;SDS011;44109;52.398;7.024;2023-12-20T03:31:37;22.10;;;4.32;;
58302;SDS011;44109;52.398;7.024;2023-12-20T03:34:05;19.08;;;4.70;;
58302;SDS011;44109;52.398;7.024;2023-12-20T03:36:33;15.32;;;4.50;;
58302;SDS011;44109;52.398;7.024;2023-12-20T03:39:00;22.52;;;5.43;;
58302;SDS011;44109;52.398;7.024;2023-12-20T03:41:29;26.33;;;5.60;;
58302;SDS011;44109;52.398;7.024;2023-12-20T03:43:57;11.45;;;3.85;;
58302;SDS011;44109;52.398;7.024;2023-12-20T03:46:26;11.02;;;3.38;;
58302;SDS011;44109;52.398;7.024;2023-12-20T03:48:53;15.25;;;4.13;;
58302;SDS011;44109;52.398;7.024;2023-12-20T03:51:21;15.10;;;4.28;;
58302;SDS011;44109;52.398;7.024;2023-12-20T03:53:48;13.48;;;3.72;;
58302;SDS011;44109;52.398;7.024;2023-12-20T03:56:16;15.07;;;5.18;;
58302;SDS011;44109;52.398;7.024;2023-12-20T03:58:44;20.67;;;5.13;;
58302;SDS011;44109;52.398;7.024;2023-12-20T04:01:11;14.25;;;3.50;;
58302;SDS011;44109;52.398;7.024;2023-12-20T04:03:40;15.30;;;4.35;;
58302;SDS011;44109;52.398;7.024;2023-12-20T04:06:08;19.05;;;4.50;;
58302;SDS011;44109;52.398;7.024;2023-12-20T04:08:36;17.83;;;4.50;;
58302;SDS011;44109;52.398;7.024;2023-12-20T04:11:03;14.80;;;4.18;;
58302;SDS011;44109;52.398;7.024;2023-12-20T04:13:31;13.85;;;4.53;;
58302;SDS011;44109;52.398;7.024;2023-12-20T04:15:58;12.57;;;4.38;;
58302;SDS011;44109;52.398;7.024;2023-12-20T04:18:26;18.05;;;4.40;;
58302;SDS011;44109;52.398;7.024;2023-12-20T04:20:55;29.90;;;5.45;;
58302;SDS011;44109;52.398;7.024;2023-12-20T04:23:23;18.85;;;5.25;;
58302;SDS011;44109;52.398;7.024;2023-12-20T04:25:50;20.15;;;4.10;;
58302;SDS011;44109;52.398;7.024;2023-12-20T04:28:18;25.02;;;5.20;;
58302;SDS011;44109;52.398;7.024;2023-12-20T04:30:46;14.40;;;5.43;;
58302;SDS011;44109;52.398;7.024;2023-12-20T04:33:13;23.63;;;5.57;;
58302;SDS011;44109;52.398;7.024;2023-12-20T04:35:41;20.80;;;6.25;;
58302;SDS011;44109;52.398;7.024;2023-12-20T04:38:10;27.85;;;5.85;;
58302;SDS011;44109;52.398;7.024;2023-12-20T04:40:38;25.30;;;5.22;;
58302;SDS011;44109;52.398;7.024;2023-12-20T04:43:07;22.73;;;4.78;;
58302;SDS011;44109;52.398;7.024;2023-12-20T04:45:35;21.65;;;4.93;;
58302;SDS011;44109;52.398;7.024;2023-12-20T04:48:06;16.48;;;4.63;;
58302;SDS011;44109;52.398;7.024;2023-12-20T04:50:34;17.38;;;4.65;;
58302;SDS011;44109;52.398;7.024;2023-12-20T04:53:01;13.68;;;4.03;;
58302;SDS011;44109;52.398;7.024;2023-12-20T04:55:30;19.33;;;4.60;;
58302;SDS011;44109;52.398;7.024;2023-12-20T04:57:58;16.90;;;5.18;;
58302;SDS011;44109;52.398;7.024;2023-12-20T05:00:26;15.25;;;4.72;;
58302;SDS011;44109;52.398;7.024;2023-12-20T05:02:55;17.52;;;5.60;;
58302;SDS011;44109;52.398;7.024;2023-12-20T05:05:23;16.33;;;4.32;;
58302;SDS011;44109;52.398;7.024;2023-12-20T05:07:50;32.42;;;5.68;;
58302;SDS011;44109;52.398;7.024;2023-12-20T05:10:18;24.52;;;5.63;;
58302;SDS011;44109;52.398;7.024;2023-12-20T05:12:47;16.80;;;5.13;;
58302;SDS011;44109;52.398;7.024;2023-12-20T05:15:15;15.48;;;4.50;;
58302;SDS011;44109;52.398;7.024;2023-12-20T05:17:42;18.52;;;5.28;;
58302;SDS011;44109;52.398;7.024;2023-12-20T05:20:10;25.02;;;5.60;;
58302;SDS011;44109;52.398;7.024;2023-12-20T05:22:38;24.08;;;6.13;;
58302;SDS011;44109;52.398;7.024;2023-12-20T05:25:06;20.73;;;5.68;;
58302;SDS011;44109;52.398;7.024;2023-12-20T05:27:34;17.45;;;4.78;;
58302;SDS011;44109;52.398;7.024;2023-12-20T05:30:03;20.17;;;5.10;;
58302;SDS011;44109;52.398;7.024;2023-12-20T05:32:31;23.30;;;5.47;;
58302;SDS011;44109;52.398;7.024;2023-12-20T05:34:59;17.77;;;4.85;;
58302;SDS011;44109;52.398;7.024;2023-12-20T05:37:29;19.73;;;5.00;;
58302;SDS011;44109;52.398;7.024;2023-12-20T05:39:56;25.92;;;5.00;;
58302;SDS011;44109;52.398;7.024;2023-12-20T05:42:24;21.42;;;5.72;;
58302;SDS011;44109;52.398;7.024;2023-12-20T05:44:52;17.80;;;6.05;;
58302;SDS011;44109;52.398;7.024;2023-12-20T05:47:21;27.42;;;5.53;;
58302;SDS011;44109;52.398;7.024;2023-12-20T05:49:48;12.95;;;4.13;;
58302;SDS011;44109;52.398;7.024;2023-12-20T05:52:17;19.67;;;5.45;;
58302;SDS011;44109;52.398;7.024;2023-12-20T05:54:44;20.52;;;5.78;;
58302;SDS011;44109;52.398;7.024;2023-12-20T05:57:12;20.35;;;5.25;;
58302;SDS011;44109;52.398;7.024;2023-12-20T05:59:42;16.70;;;5.20;;
58302;SDS011;44109;52.398;7.024;2023-12-20T06:02:10;15.55;;;5.75;;
58302;SDS011;44109;52.398;7.024;2023-12-20T06:04:39;17.70;;;5.10;;
58302;SDS011;44109;52.398;7.024;2023-12-20T06:07:13;19.85;;;5.32;;
58302;SDS011;44109;52.398;7.024;2023-12-20T06:09:42;22.58;;;5.57;;
58302;SDS011;44109;52.398;7.024;2023-12-20T06:12:10;26.77;;;5.50;;
58302;SDS011;44109;52.398;7.024;2023-12-20T06:14:38;17.13;;;5.22;;
58302;SDS011;44109;52.398;7.024;2023-12-20T06:17:05;22.52;;;5.55;;
58302;SDS011;44109;52.398;7.024;2023-12-20T06:19:36;16.38;;;4.60;;
58302;SDS011;44109;52.398;7.024;2023-12-20T06:22:05;24.38;;;6.20;;
58302;SDS011;44109;52.398;7.024;2023-12-20T06:24:32;15.23;;;4.63;;
58302;SDS011;44109;52.398;7.024;2023-12-20T06:27:00;18.33;;;5.15;;
58302;SDS011;44109;52.398;7.024;2023-12-20T06:29:27;26.08;;;6.10;;
58302;SDS011;44109;52.398;7.024;2023-12-20T06:31:56;22.77;;;6.15;;
58302;SDS011;44109;52.398;7.024;2023-12-20T06:34:24;18.83;;;4.90;;
58302;SDS011;44109;52.398;7.024;2023-12-20T06:36:55;23.25;;;5.85;;
58302;SDS011;44109;52.398;7.024;2023-12-20T06:39:23;16.98;;;5.40;;
58302;SDS011;44109;52.398;7.024;2023-12-20T06:41:54;22.10;;;5.20;;
58302;SDS011;44109;52.398;7.024;2023-12-20T06:44:21;17.05;;;4.70;;
58302;SDS011;44109;52.398;7.024;2023-12-20T06:46:49;21.23;;;4.60;;
58302;SDS011;44109;52.398;7.024;2023-12-20T06:49:17;21.80;;;5.75;;
58302;SDS011;44109;52.398;7.024;2023-12-20T06:51:44;18.67;;;5.40;;
58302;SDS011;44109;52.398;7.024;2023-12-20T06:54:12;20.63;;;5.88;;
58302;SDS011;44109;52.398;7.024;2023-12-20T06:56:41;27.85;;;6.00;;
58302;SDS011;44109;52.398;7.024;2023-12-20T06:59:09;24.63;;;6.03;;
58302;SDS011;44109;52.398;7.024;2023-12-20T07:01:36;20.02;;;5.30;;
58302;SDS011;44109;52.398;7.024;2023-12-20T07:04:04;18.75;;;4.43;;
58302;SDS011;44109;52.398;7.024;2023-12-20T07:06:34;21.48;;;5.50;;
58302;SDS011;44109;52.398;7.024;2023-12-20T07:09:02;29.63;;;6.47;;
58302;SDS011;44109;52.398;7.024;2023-12-20T07:11:29;21.75;;;5.95;;
58302;SDS011;44109;52.398;7.024;2023-12-20T07:13:59;22.63;;;4.97;;
58302;SDS011;44109;52.398;7.024;2023-12-20T07:16:27;19.30;;;5.35;;
58302;SDS011;44109;52.398;7.024;2023-12-20T07:18:54;17.33;;;4.75;;
58302;SDS011;44109;52.398;7.024;2023-12-20T07:21:22;24.45;;;5.45;;
58302;SDS011;44109;52.398;7.024;2023-12-20T07:23:50;19.35;;;5.43;;
58302;SDS011;44109;52.398;7.024;2023-12-20T07:26:18;16.70;;;5.07;;
58302;SDS011;44109;52.398;7.024;2023-12-20T07:28:45;22.13;;;5.32;;
58302;SDS011;44109;52.398;7.024;2023-12-20T07:31:14;15.73;;;5.10;;
58302;SDS011;44109;52.398;7.024;2023-12-20T07:33:42;17.15;;;5.53;;
58302;SDS011;44109;52.398;7.024;2023-12-20T07:36:10;22.85;;;5.90;;
58302;SDS011;44109;52.398;7.024;2023-12-20T07:38:39;22.55;;;4.85;;
58302;SDS011;44109;52.398;7.024;2023-12-20T07:41:09;16.48;;;5.10;;
58302;SDS011;44109;52.398;7.024;2023-12-20T07:43:40;15.23;;;5.28;;
58302;SDS011;44109;52.398;7.024;2023-12-20T07:46:10;23.58;;;5.55;;
58302;SDS011;44109;52.398;7.024;2023-12-20T07:48:39;19.13;;;5.72;;
58302;SDS011;44109;52.398;7.024;2023-12-20T07:51:07;17.17;;;5.50;;
58302;SDS011;44109;52.398;7.024;2023-12-20T07:53:35;16.67;;;4.78;;
58302;SDS011;44109;52.398;7.024;2023-12-20T07:56:12;16.38;;;5.10;;
58302;SDS011;44109;52.398;7.024;2023-12-20T07:58:41;20.80;;;5.43;;
58302;SDS011;44109;52.398;7.024;2023-12-20T08:01:09;19.73;;;5.18;;
58302;SDS011;44109;52.398;7.024;2023-12-20T08:03:37;12.60;;;4.68;;
58302;SDS011;44109;52.398;7.024;2023-12-20T08:06:07;16.02;;;5.30;;
58302;SDS011;44109;52.398;7.024;2023-12-20T08:08:34;20.02;;;5.18;;
58302;SDS011;44109;52.398;7.024;2023-12-20T08:11:02;16.75;;;4.60;;
58302;SDS011;44109;52.398;7.024;2023-12-20T08:13:30;24.67;;;5.82;;
58302;SDS011;44109;52.398;7.024;2023-12-20T08:15:57;17.75;;;4.90;;
58302;SDS011;44109;52.398;7.024;2023-12-20T08:18:25;14.57;;;4.32;;
58302;SDS011;44109;52.398;7.024;2023-12-20T08:20:54;25.42;;;6.50;;
58302;SDS011;44109;52.398;7.024;2023-12-20T08:23:25;22.80;;;5.38;;
58302;SDS011;44109;52.398;7.024;2023-12-20T08:25:52;22.65;;;5.53;;
58302;SDS011;44109;52.398;7.024;2023-12-20T08:28:20;21.52;;;5.45;;
58302;SDS011;44109;52.398;7.024;2023-12-20T08:30:48;21.45;;;5.75;;
58302;SDS011;44109;52.398;7.024;2023-12-20T08:33:19;17.52;;;6.22;;
58302;SDS011;44109;52.398;7.024;2023-12-20T08:35:47;21.13;;;5.10;;
58302;SDS011;44109;52.398;7.024;2023-12-20T08:38:16;15.70;;;5.40;;
58302;SDS011;44109;52.398;7.024;2023-12-20T08:40:44;20.73;;;5.18;;
58302;SDS011;44109;52.398;7.024;2023-12-20T08:43:12;27.95;;;6.70;;
58302;SDS011;44109;52.398;7.024;2023-12-20T08:45:39;19.27;;;4.80;;
58302;SDS011;44109;52.398;7.024;2023-12-20T08:48:07;23.27;;;5.32;;
58302;SDS011;44109;52.398;7.024;2023-12-20T08:50:34;24.05;;;6.57;;
58302;SDS011;44109;52.398;7.024;2023-12-20T08:53:03;25.98;;;5.93;;
58302;SDS011;44109;52.398;7.024;2023-12-20T08:55:34;21.55;;;6.15;;
58302;SDS011;44109;52.398;7.024;2023-12-20T08:58:02;18.20;;;5.90;;
58302;SDS011;44109;52.398;7.024;2023-12-20T09:00:32;18.90;;;5.25;;
58302;SDS011;44109;52.398;7.024;2023-12-20T09:03:00;26.35;;;7.60;;
58302;SDS011;44109;52.398;7.024;2023-12-20T09:05:29;22.27;;;5.63;;
58302;SDS011;44109;52.398;7.024;2023-12-20T09:07:59;21.20;;;6.18;;
58302;SDS011;44109;52.398;7.024;2023-12-20T09:10:26;26.65;;;5.95;;
58302;SDS011;44109;52.398;7.024;2023-12-20T09:12:55;22.00;;;6.43;;
58302;SDS011;44109;52.398;7.024;2023-12-20T09:15:24;24.70;;;6.95;;
58302;SDS011;44109;52.398;7.024;2023-12-20T09:17:53;19.27;;;5.72;;
58302;SDS011;44109;52.398;7.024;2023-12-20T09:20:20;16.88;;;4.47;;
58302;SDS011;44109;52.398;7.024;2023-12-20T09:22:50;28.85;;;6.57;;
58302;SDS011;44109;52.398;7.024;2023-12-20T09:25:17;23.50;;;5.35;;
58302;SDS011;44109;52.398;7.024;2023-12-20T09:27:45;21.00;;;5.40;;
58302;SDS011;44109;52.398;7.024;2023-12-20T09:30:14;14.10;;;5.03;;
58302;SDS011;44109;52.398;7.024;2023-12-20T09:32:43;22.52;;;5.28;;
58302;SDS011;44109;52.398;7.024;2023-12-20T09:35:10;17.17;;;5.57;;
58302;SDS011;44109;52.398;7.024;2023-12-20T09:37:38;16.67;;;5.43;;
58302;SDS011;44109;52.398;7.024;2023-12-20T09:40:07;16.42;;;5.45;;
58302;SDS011;44109;52.398;7.024;2023-12-20T09:42:43;17.40;;;5.75;;
58302;SDS011;44109;52.398;7.024;2023-12-20T09:45:25;22.20;;;5.85;;
58302;SDS011;44109;52.398;7.024;2023-12-20T09:47:53;16.42;;;5.72;;
58302;SDS011;44109;52.398;7.024;2023-12-20T09:50:21;17.70;;;5.28;;
58302;SDS011;44109;52.398;7.024;2023-12-20T09:52:49;25.23;;;5.75;;
58302;SDS011;44109;52.398;7.024;2023-12-20T09:55:19;20.13;;;5.55;;
58302;SDS011;44109;52.398;7.024;2023-12-20T09:57:48;18.45;;;5.80;;
58302;SDS011;44109;52.398;7.024;2023-12-20T10:00:16;15.95;;;5.18;;
58302;SDS011;44109;52.398;7.024;2023-12-20T10:02:50;20.80;;;6.50;;
58302;SDS011;44109;52.398;7.024;2023-12-20T10:05:26;27.70;;;5.75;;
58302;SDS011;44109;52.398;7.024;2023-12-20T10:07:55;19.88;;;6.93;;
58302;SDS011;44109;52.398;7.024;2023-12-20T10:10:24;24.20;;;6.18;;
58302;SDS011;44109;52.398;7.024;2023-12-20T10:13:01;21.20;;;6.35;;
58302;SDS011;44109;52.398;7.024;2023-12-20T10:15:32;15.98;;;6.45;;
58302;SDS011;44109;52.398;7.024;2023-12-20T10:18:01;19.60;;;5.00;;
58302;SDS011;44109;52.398;7.024;2023-12-20T10:20:29;21.08;;;6.20;;
58302;SDS011;44109;52.398;7.024;2023-12-20T10:22:58;32.28;;;6.85;;
58302;SDS011;44109;52.398;7.024;2023-12-20T10:25:27;18.50;;;5.20;;
58302;SDS011;44109;52.398;7.024;2023-12-20T10:28:08;22.08;;;6.40;;
58302;SDS011;44109;52.398;7.024;2023-12-20T10:30:37;26.48;;;6.55;;
58302;SDS011;44109;52.398;7.024;2023-12-20T10:33:07;26.45;;;6.53;;
58302;SDS011;44109;52.398;7.024;2023-12-20T10:35:38;25.25;;;6.15;;
58302;SDS011;44109;52.398;7.024;2023-12-20T10:38:07;22.52;;;6.13;;
58302;SDS011;44109;52.398;7.024;2023-12-20T10:40:36;21.80;;;5.72;;
58302;SDS011;44109;52.398;7.024;2023-12-20T10:43:04;22.52;;;6.10;;
58302;SDS011;44109;52.398;7.024;2023-12-20T10:45:32;25.48;;;7.32;;
58302;SDS011;44109;52.398;7.024;2023-12-20T10:47:59;24.60;;;6.03;;
58302;SDS011;44109;52.398;7.024;2023-12-20T10:50:30;20.77;;;6.65;;
58302;SDS011;44109;52.398;7.024;2023-12-20T10:52:58;22.65;;;6.32;;
58302;SDS011;44109;52.398;7.024;2023-12-20T10:55:26;21.63;;;6.50;;
58302;SDS011;44109;52.398;7.024;2023-12-20T10:57:56;18.13;;;6.45;;
58302;SDS011;44109;52.398;7.024;2023-12-20T11:00:33;33.42;;;7.28;;
58302;SDS011;44109;52.398;7.024;2023-12-20T11:03:12;17.50;;;4.90;;
58302;SDS011;44109;52.398;7.024;2023-12-20T11:05:47;21.25;;;6.45;;
58302;SDS011;44109;52.398;7.024;2023-12-20T11:08:23;15.30;;;5.43;;
58302;SDS011;44109;52.398;7.024;2023-12-20T11:11:02;22.60;;;5.18;;
58302;SDS011;44109;52.398;7.024;2023-12-20T11:13:43;15.98;;;4.63;;
58302;SDS011;44109;52.398;7.024;2023-12-20T11:16:22;17.75;;;4.45;;
58302;SDS011;44109;52.398;7.024;2023-12-20T11:18:51;13.02;;;4.28;;
58302;SDS011;44109;52.398;7.024;2023-12-20T11:21:20;14.60;;;4.53;;
58302;SDS011;44109;52.398;7.024;2023-12-20T11:23:48;12.32;;;3.55;;
58302;SDS011;44109;52.398;7.024;2023-12-20T11:26:15;15.88;;;4.10;;
58302;SDS011;44109;52.398;7.024;2023-12-20T11:28:43;10.30;;;2.92;;
58302;SDS011;44109;52.398;7.024;2023-12-20T11:31:13;13.02;;;2.60;;
58302;SDS011;44109;52.398;7.024;2023-12-20T11:33:43;6.18;;;1.83;;
58302;SDS011;44109;52.398;7.024;2023-12-20T11:36:14;6.30;;;2.25;;
58302;SDS011;44109;52.398;7.024;2023-12-20T11:38:54;7.53;;;2.03;;
58302;SDS011;44109;52.398;7.024;2023-12-20T11:41:25;8.35;;;2.10;;
58302;SDS011;44109;52.398;7.024;2023-12-20T11:43:53;8.43;;;1.88;;
58302;SDS011;44109;52.398;7.024;2023-12-20T11:46:22;8.45;;;1.70;;
58302;SDS011;44109;52.398;7.024;2023-12-20T11:48:49;6.35;;;1.95;;
58302;SDS011;44109;52.398;7.024;2023-12-20T11:51:17;8.27;;;1.63;;
58302;SDS011;44109;52.398;7.024;2023-12-20T11:53:46;5.60;;;2.00;;
58302;SDS011;44109;52.398;7.024;2023-12-20T11:56:21;5.82;;;1.85;;
58302;SDS011;44109;52.398;7.024;2023-12-20T11:58:49;4.35;;;1.42;;
58302;SDS011;44109;52.398;7.024;2023-12-20T12:01:17;5.40;;;1.75;;
58302;SDS011;44109;52.398;7.024;2023-12-20T12:03:47;8.90;;;2.22;;
58302;SDS011;44109;52.398;7.024;2023-12-20T12:06:14;8.60;;;2.15;;
58302;SDS011;44109;52.398;7.024;2023-12-20T12:08:42;9.38;;;2.45;;
58302;SDS011;44109;52.398;7.024;2023-12-20T12:11:10;3.78;;;1.40;;
58302;SDS011;44109;52.398;7.024;2023-12-20T12:13:39;7.20;;;1.95;;
58302;SDS011;44109;52.398;7.024;2023-12-20T12:16:06;4.15;;;1.48;;
58302;SDS011;44109;52.398;7.024;2023-12-20T12:18:35;4.70;;;1.50;;
58302;SDS011;44109;52.398;7.024;2023-12-20T12:21:03;9.38;;;1.85;;
58302;SDS011;44109;52.398;7.024;2023-12-20T12:23:31;4.72;;;1.52;;
58302;SDS011;44109;52.398;7.024;2023-12-20T12:25:58;7.05;;;1.70;;
58302;SDS011;44109;52.398;7.024;2023-12-20T12:28:26;5.07;;;1.35;;
58302;SDS011;44109;52.398;7.024;2023-12-20T12:31:06;5.20;;;1.40;;
58302;SDS011;44109;52.398;7.024;2023-12-20T12:33:34;5.47;;;1.60;;
58302;SDS011;44109;52.398;7.024;2023-12-20T12:36:05;7.13;;;1.33;;
58302;SDS011;44109;52.398;7.024;2023-12-20T12:38:34;7.88;;;1.63;;
58302;SDS011;44109;52.398;7.024;2023-12-20T12:41:04;3.97;;;1.25;;
58302;SDS011;44109;52.398;7.024;2023-12-20T12:43:33;6.50;;;1.50;;
58302;SDS011;44109;52.398;7.024;2023-12-20T12:46:02;4.93;;;1.20;;
58302;SDS011;44109;52.398;7.024;2023-12-20T12:48:29;5.40;;;1.70;;
58302;SDS011;44109;52.398;7.024;2023-12-20T12:50:57;4.82;;;1.20;;
58302;SDS011;44109;52.398;7.024;2023-12-20T12:53:25;4.63;;;1.27;;
58302;SDS011;44109;52.398;7.024;2023-12-20T12:55:56;4.75;;;1.10;;
58302;SDS011;44109;52.398;7.024;2023-12-20T12:58:23;5.05;;;1.40;;
58302;SDS011;44109;52.398;7.024;2023-12-20T13:00:52;6.40;;;1.50;;
58302;SDS011;44109;52.398;7.024;2023-12-20T13:03:21;3.03;;;1.13;;
58302;SDS011;44109;52.398;7.024;2023-12-20T13:05:48;7.30;;;2.63;;
58302;SDS011;44109;52.398;7.024;2023-12-20T13:08:16;3.70;;;1.30;;
58302;SDS011;44109;52.398;7.024;2023-12-20T13:10:44;5.70;;;1.77;;
58302;SDS011;44109;52.398;7.024;2023-12-20T13:13:13;8.20;;;1.58;;
58302;SDS011;44109;52.398;7.024;2023-12-20T13:15:41;8.15;;;1.80;;
58302;SDS011;44109;52.398;7.024;2023-12-20T13:18:14;9.07;;;1.83;;
58302;SDS011;44109;52.398;7.024;2023-12-20T13:20:42;6.45;;;1.25;;
58302;SDS011;44109;52.398;7.024;2023-12-20T13:23:10;3.45;;;1.55;;
58302;SDS011;44109;52.398;7.024;2023-12-20T13:25:39;5.13;;;1.75;;
58302;SDS011;44109;52.398;7.024;2023-12-20T13:28:07;5.25;;;1.52;;
58302;SDS011;44109;52.398;7.024;2023-12-20T13:30:35;7.05;;;1.63;;
58302;SDS011;44109;52.398;7.024;2023-12-20T13:33:03;4.75;;;1.80;;
58302;SDS011;44109;52.398;7.024;2023-12-20T13:35:31;4.07;;;1.55;;
58302;SDS011;44109;52.398;7.024;2023-12-20T13:38:00;5.28;;;1.88;;
58302;SDS011;44109;52.398;7.024;2023-12-20T13:40:29;11.55;;;2.13;;
58302;SDS011;44109;52.398;7.024;2023-12-20T13:42:57;4.53;;;1.38;;
58302;SDS011;44109;52.398;7.024;2023-12-20T13:45:25;6.28;;;1.85;;
58302;SDS011;44109;52.398;7.024;2023-12-20T13:47:52;2.92;;;1.42;;
58302;SDS011;44109;52.398;7.024;2023-12-20T13:50:20;2.97;;;1.10;;
58302;SDS011;44109;52.398;7.024;2023-12-20T13:52:48;9.65;;;1.98;;
58302;SDS011;44109;52.398;7.024;2023-12-20T13:55:17;5.28;;;1.80;;
58302;SDS011;44109;52.398;7.024;2023-12-20T13:57:47;5.40;;;1.95;;
58302;SDS011;44109;52.398;7.024;2023-12-20T14:00:15;8.13;;;1.80;;
58302;SDS011;44109;52.398;7.024;2023-12-20T14:02:44;8.18;;;1.77;;
58302;SDS011;44109;52.398;7.024;2023-12-20T14:05:12;7.05;;;2.20;;
58302;SDS011;44109;52.398;7.024;2023-12-20T14:07:40;8.18;;;2.00;;
58302;SDS011;44109;52.398;7.024;2023-12-20T14:10:10;8.77;;;2.60;;
58302;SDS011;44109;52.398;7.024;2023-12-20T14:12:40;7.35;;;2.30;;
58302;SDS011;44109;52.398;7.024;2023-12-20T14:15:10;8.30;;;2.55;;
58302;SDS011;44109;52.398;7.024;2023-12-20T14:17:38;6.75;;;2.80;;
58302;SDS011;44109;52.398;7.024;2023-12-20T14:20:07;11.93;;;3.15;;
58302;SDS011;44109;52.398;7.024;2023-12-20T14:22:38;8.65;;;2.30;;
58302;SDS011;44109;52.398;7.024;2023-12-20T14:25:10;13.57;;;3.63;;
58302;SDS011;44109;52.398;7.024;2023-12-20T14:27:42;9.88;;;3.17;;
58302;SDS011;44109;52.398;7.024;2023-12-20T14:30:10;7.18;;;2.40;;
58302;SDS011;44109;52.398;7.024;2023-12-20T14:32:42;12.25;;;3.15;;
58302;SDS011;44109;52.398;7.024;2023-12-20T14:35:10;9.90;;;2.70;;
58302;SDS011;44109;52.398;7.024;2023-12-20T14:37:40;11.43;;;3.47;;
58302;SDS011;44109;52.398;7.024;2023-12-20T14:40:08;8.52;;;3.20;;
58302;SDS011;44109;52.398;7.024;2023-12-20T14:42:40;8.10;;;3.22;;
58302;SDS011;44109;52.398;7.024;2023-12-20T14:45:10;9.52;;;3.60;;
58302;SDS011;44109;52.398;7.024;2023-12-20T14:47:40;8.20;;;2.92;;